createdAt,value
2018-12-31T00:00:11.678Z,17.4
2018-12-31T00:00:52.436Z,17.41
2018-12-31T00:01:33.220Z,17.52
2018-12-31T00:02:14.007Z,17.37
2018-12-31T00:02:54.708Z,17.41
2018-12-31T00:03:35.532Z,17.4
2018-12-31T00:04:16.336Z,17.4
2018-12-31T00:04:57.144Z,17.34
2018-12-31T00:05:37.892Z,17.37
2018-12-31T00:06:18.671Z,17.37
2018-12-31T00:06:59.529Z,17.28
2018-12-31T00:07:40.310Z,17.23
2018-12-31T00:08:21.076Z,17.33
2018-12-31T00:09:01.784Z,17.21
2018-12-31T00:09:42.532Z,17.3
2018-12-31T00:10:23.345Z,17.25
2018-12-31T00:11:04.171Z,17.26
2018-12-31T00:11:44.975Z,17.3
2018-12-31T00:12:25.991Z,17.22
2018-12-31T00:13:06.719Z,17.22
2018-12-31T00:13:47.477Z,17.31
2018-12-31T00:14:28.295Z,17.19
2018-12-31T00:15:09.085Z,17.31
2018-12-31T00:15:49.805Z,17.26
2018-12-31T00:16:30.554Z,17.18
2018-12-31T00:17:11.471Z,17.21
2018-12-31T00:17:52.275Z,17.3
2018-12-31T00:18:33.022Z,17.22
2018-12-31T00:19:13.797Z,17.34
2018-12-31T00:19:54.527Z,17.33
2018-12-31T00:20:35.253Z,17.19
2018-12-31T00:21:16.051Z,17.18
2018-12-31T00:21:56.861Z,17.21
2018-12-31T00:22:37.609Z,17.23
2018-12-31T00:23:18.309Z,17.23
2018-12-31T00:23:59.109Z,17.21
2018-12-31T00:24:39.910Z,17.15
2018-12-31T00:25:20.613Z,17.19
2018-12-31T00:26:01.319Z,17.22
2018-12-31T00:26:42.209Z,17.19
2018-12-31T00:27:22.982Z,17.19
2018-12-31T00:28:03.756Z,17.19
2018-12-31T00:28:44.558Z,17.21
2018-12-31T00:29:25.350Z,17.21
2018-12-31T00:30:06.080Z,17.16
2018-12-31T00:30:46.838Z,17.25
2018-12-31T00:31:27.538Z,17.21
2018-12-31T00:32:08.352Z,17.22
2018-12-31T00:32:49.075Z,17.19
2018-12-31T00:33:29.807Z,17.23
2018-12-31T00:34:10.609Z,17.21
2018-12-31T00:34:51.425Z,17.16
2018-12-31T00:35:32.225Z,17.18
2018-12-31T00:36:13.015Z,17.16
2018-12-31T00:36:53.694Z,17.16
2018-12-31T00:37:34.525Z,17.16
2018-12-31T00:38:15.219Z,17.16
2018-12-31T00:38:55.989Z,17.19
2018-12-31T00:39:36.738Z,17.14
2018-12-31T00:40:17.553Z,17.14
2018-12-31T00:40:58.331Z,17.14
2018-12-31T00:41:39.085Z,17.16
2018-12-31T00:42:19.779Z,17.21
2018-12-31T00:43:00.542Z,17.16
2018-12-31T00:43:41.329Z,17.14
2018-12-31T00:44:22.076Z,17.16
2018-12-31T00:45:02.808Z,17.16
2018-12-31T00:45:43.538Z,17.18
2018-12-31T00:46:24.241Z,17.11
2018-12-31T00:47:05.080Z,17.22
2018-12-31T00:47:45.861Z,17.14
2018-12-31T00:48:26.709Z,17.18
2018-12-31T00:49:07.504Z,17.18
2018-12-31T00:49:48.177Z,17.14
2018-12-31T00:50:28.958Z,17.14
2018-12-31T00:51:09.751Z,17.18
2018-12-31T00:51:50.485Z,17.18
2018-12-31T00:52:31.238Z,17.15
2018-12-31T00:53:11.952Z,17.06
2018-12-31T00:53:52.763Z,17.12
2018-12-31T00:54:33.624Z,17.18
2018-12-31T00:55:14.396Z,17.16
2018-12-31T00:55:55.101Z,17.14
2018-12-31T00:56:35.816Z,17.12
2018-12-31T00:57:16.527Z,17.16
2018-12-31T00:57:57.319Z,17.14
2018-12-31T00:58:38.115Z,17.12
2018-12-31T00:59:18.842Z,17.07
2018-12-31T00:59:59.607Z,17.14
2018-12-31T01:00:40.369Z,17.14
2018-12-31T01:01:21.173Z,17.08
2018-12-31T01:02:01.963Z,17.11
2018-12-31T01:02:42.719Z,17.14
2018-12-31T01:03:23.419Z,17.16
2018-12-31T01:04:04.156Z,17.11
2018-12-31T01:04:44.988Z,17.11
2018-12-31T01:05:25.790Z,17.08
2018-12-31T01:06:06.571Z,17.15
2018-12-31T01:06:47.304Z,17.07
2018-12-31T01:07:28.096Z,17.14
2018-12-31T01:08:08.906Z,17.11
2018-12-31T01:08:49.679Z,17.08
2018-12-31T01:09:30.422Z,17.07
2018-12-31T01:10:11.140Z,17.12
2018-12-31T01:10:51.925Z,17.06
2018-12-31T01:11:32.680Z,17.06
2018-12-31T01:12:13.413Z,17.08
2018-12-31T01:12:54.161Z,17.08
2018-12-31T01:13:34.965Z,17.15
2018-12-31T01:14:15.735Z,17.06
2018-12-31T01:14:56.478Z,17.12
2018-12-31T01:15:37.204Z,17.06
2018-12-31T01:16:18.025Z,17.06
2018-12-31T01:16:58.811Z,17.14
2018-12-31T01:17:39.550Z,17.04
2018-12-31T01:18:20.313Z,17.07
2018-12-31T01:19:01.013Z,17.08
2018-12-31T01:19:41.816Z,17.03
2018-12-31T01:20:22.584Z,17.12
2018-12-31T01:21:03.399Z,17.11
2018-12-31T01:21:44.138Z,17.08
2018-12-31T01:22:24.881Z,17.06
2018-12-31T01:23:05.621Z,17.06
2018-12-31T01:23:46.386Z,17.08
2018-12-31T01:24:27.169Z,17.11
2018-12-31T01:25:07.977Z,17.06
2018-12-31T01:25:48.689Z,17.07
2018-12-31T01:26:29.497Z,17.04
2018-12-31T01:27:10.342Z,17.07
2018-12-31T01:27:51.095Z,17.06
2018-12-31T01:28:31.826Z,17.07
2018-12-31T01:29:12.549Z,17.03
2018-12-31T01:29:53.396Z,17.03
2018-12-31T01:30:34.141Z,17.11
2018-12-31T01:31:14.847Z,17.06
2018-12-31T01:31:55.610Z,17.07
2018-12-31T01:32:36.300Z,17.01
2018-12-31T01:33:17.113Z,17.06
2018-12-31T01:33:57.874Z,17.08
2018-12-31T01:34:38.607Z,17.06
2018-12-31T01:35:19.433Z,17.03
2018-12-31T01:36:00.254Z,17.03
2018-12-31T01:36:41.043Z,17.15
2018-12-31T01:37:21.747Z,17.08
2018-12-31T01:38:02.471Z,17.04
2018-12-31T01:38:43.193Z,17.01
2018-12-31T01:39:23.981Z,17.01
2018-12-31T01:40:04.731Z,17.11
2018-12-31T01:40:45.548Z,17.01
2018-12-31T01:41:26.269Z,17.04
2018-12-31T01:42:06.996Z,17.03
2018-12-31T01:42:47.798Z,17.03
2018-12-31T01:43:28.519Z,17.04
2018-12-31T01:44:09.191Z,17.06
2018-12-31T01:44:49.874Z,17.12
2018-12-31T01:45:30.592Z,17.11
2018-12-31T01:46:11.423Z,17.04
2018-12-31T01:46:52.117Z,17.07
2018-12-31T01:47:32.813Z,17.11
2018-12-31T01:48:13.634Z,17.01
2018-12-31T01:48:54.435Z,17.08
2018-12-31T01:49:35.264Z,17.11
2018-12-31T01:50:15.982Z,17.12
2018-12-31T01:50:56.752Z,17.01
2018-12-31T01:51:37.524Z,17.06
2018-12-31T01:52:18.297Z,17.03
2018-12-31T01:52:58.994Z,17.01
2018-12-31T01:53:39.732Z,17.04
2018-12-31T01:54:20.472Z,17.08
2018-12-31T01:55:01.263Z,17.12
2018-12-31T01:55:42.071Z,17.11
2018-12-31T01:56:22.792Z,17.03
2018-12-31T01:57:03.565Z,17.12
2018-12-31T01:57:44.315Z,17.04
2018-12-31T01:58:25.063Z,17.07
2018-12-31T01:59:05.893Z,17.12
2018-12-31T01:59:46.669Z,17.07
2018-12-31T02:00:27.385Z,17.06
2018-12-31T02:01:08.231Z,17.11
2018-12-31T02:01:49.015Z,17.01
2018-12-31T02:02:29.831Z,17.12
2018-12-31T02:03:10.558Z,17.07
2018-12-31T02:03:51.287Z,17.11
2018-12-31T02:04:32.028Z,17.14
2018-12-31T02:05:12.780Z,17.08
2018-12-31T02:05:53.602Z,17.03
2018-12-31T02:06:34.399Z,17.07
2018-12-31T02:07:15.197Z,17.06
2018-12-31T02:07:55.954Z,17.08
2018-12-31T02:08:36.698Z,17.07
2018-12-31T02:09:17.510Z,17.14
2018-12-31T02:09:58.202Z,17.03
2018-12-31T02:10:38.888Z,17.11
2018-12-31T02:11:19.633Z,17.08
2018-12-31T02:12:00.471Z,17.08
2018-12-31T02:12:41.236Z,17.07
2018-12-31T02:13:22.012Z,17.07
2018-12-31T02:14:02.781Z,17.11
2018-12-31T02:14:43.450Z,17.08
2018-12-31T02:15:24.179Z,17.11
2018-12-31T02:16:04.961Z,17.08
2018-12-31T02:16:45.780Z,17.08
2018-12-31T02:17:26.521Z,17.08
2018-12-31T02:18:07.239Z,17.12
2018-12-31T02:18:48.043Z,17.07
2018-12-31T02:19:28.882Z,17.01
2018-12-31T02:20:09.650Z,17.08
2018-12-31T02:20:50.376Z,17
2018-12-31T02:21:31.138Z,17.06
2018-12-31T02:22:11.975Z,17.11
2018-12-31T02:22:52.700Z,17.11
2018-12-31T02:23:33.387Z,17.11
2018-12-31T02:24:14.079Z,17.03
2018-12-31T02:24:54.874Z,17.11
2018-12-31T02:25:35.630Z,17.03
2018-12-31T02:26:16.353Z,17.03
2018-12-31T02:26:57.085Z,17.08
2018-12-31T02:27:37.913Z,17.06
2018-12-31T02:28:18.712Z,17.08
2018-12-31T02:28:59.441Z,17.04
2018-12-31T02:29:40.123Z,17.07
2018-12-31T02:30:20.866Z,17.07
2018-12-31T02:31:01.608Z,16.98
2018-12-31T02:31:42.403Z,17.12
2018-12-31T02:32:23.152Z,17.01
2018-12-31T02:33:03.961Z,17.12
2018-12-31T02:33:44.689Z,16.98
2018-12-31T02:34:25.430Z,16.98
2018-12-31T02:35:06.232Z,17
2018-12-31T02:35:47.043Z,17.04
2018-12-31T02:36:27.756Z,17.04
2018-12-31T02:37:08.530Z,16.98
2018-12-31T02:37:49.279Z,17.01
2018-12-31T02:38:30.100Z,17.01
2018-12-31T02:39:10.917Z,17.04
2018-12-31T02:39:51.738Z,17.06
2018-12-31T02:40:32.456Z,17.04
2018-12-31T02:41:13.158Z,16.93
2018-12-31T02:41:53.868Z,16.94
2018-12-31T02:42:34.665Z,16.98
2018-12-31T02:43:15.408Z,17.01
2018-12-31T02:43:56.110Z,17
2018-12-31T02:44:36.860Z,16.96
2018-12-31T02:45:17.635Z,16.98
2018-12-31T02:45:58.492Z,16.96
2018-12-31T02:46:39.268Z,16.93
2018-12-31T02:47:20.012Z,16.93
2018-12-31T02:48:00.722Z,16.93
2018-12-31T02:48:41.479Z,16.96
2018-12-31T02:49:22.324Z,17
2018-12-31T02:50:03.134Z,16.93
2018-12-31T02:50:43.903Z,16.89
2018-12-31T02:51:24.672Z,16.91
2018-12-31T02:52:05.383Z,16.93
2018-12-31T02:52:46.164Z,17.06
2018-12-31T02:53:26.881Z,16.93
2018-12-31T02:54:07.589Z,16.98
2018-12-31T02:54:48.335Z,17.03
2018-12-31T02:55:29.111Z,16.97
2018-12-31T02:56:09.929Z,16.89
2018-12-31T02:56:50.639Z,17
2018-12-31T02:57:31.427Z,16.91
2018-12-31T02:58:12.233Z,16.96
2018-12-31T02:58:53.067Z,16.94
2018-12-31T02:59:33.833Z,17
2018-12-31T03:00:14.560Z,16.96
2018-12-31T03:00:55.335Z,16.98
2018-12-31T03:01:36.116Z,16.96
2018-12-31T03:02:16.839Z,16.96
2018-12-31T03:02:57.540Z,16.96
2018-12-31T03:03:38.244Z,16.97
2018-12-31T03:04:19.055Z,16.97
2018-12-31T03:04:59.800Z,16.91
2018-12-31T03:05:40.619Z,17
2018-12-31T03:06:21.364Z,16.94
2018-12-31T03:07:02.040Z,16.94
2018-12-31T03:07:42.752Z,16.93
2018-12-31T03:08:23.484Z,17
2018-12-31T03:09:04.300Z,16.94
2018-12-31T03:09:45.008Z,17
2018-12-31T03:10:25.742Z,17
2018-12-31T03:11:06.565Z,16.98
2018-12-31T03:11:47.317Z,17.03
2018-12-31T03:12:28.115Z,17
2018-12-31T03:13:08.898Z,16.89
2018-12-31T03:13:49.578Z,16.93
2018-12-31T03:14:30.328Z,16.94
2018-12-31T03:15:11.179Z,16.96
2018-12-31T03:15:51.954Z,16.91
2018-12-31T03:16:32.767Z,16.91
2018-12-31T03:17:13.461Z,16.93
2018-12-31T03:17:54.200Z,16.96
2018-12-31T03:18:35.002Z,16.94
2018-12-31T03:19:15.745Z,17.01
2018-12-31T03:19:56.424Z,16.97
2018-12-31T03:20:37.134Z,16.93
2018-12-31T03:21:17.860Z,17
2018-12-31T03:21:58.676Z,16.97
2018-12-31T03:22:39.453Z,16.89
2018-12-31T03:23:20.307Z,16.98
2018-12-31T03:24:01.058Z,16.97
2018-12-31T03:24:41.799Z,16.91
2018-12-31T03:25:22.462Z,16.93
2018-12-31T03:26:03.302Z,16.93
2018-12-31T03:26:44.075Z,16.97
2018-12-31T03:27:24.812Z,16.93
2018-12-31T03:28:05.569Z,16.96
2018-12-31T03:28:46.457Z,16.96
2018-12-31T03:29:27.269Z,16.86
2018-12-31T03:30:08.009Z,16.89
2018-12-31T03:30:48.724Z,16.88
2018-12-31T03:31:29.494Z,16.94
2018-12-31T03:32:10.254Z,16.88
2018-12-31T03:32:50.997Z,16.93
2018-12-31T03:33:31.740Z,16.85
2018-12-31T03:34:12.454Z,16.91
2018-12-31T03:34:53.270Z,16.94
2018-12-31T03:35:34.003Z,16.89
2018-12-31T03:36:14.735Z,16.91
2018-12-31T03:36:55.546Z,16.91
2018-12-31T03:37:36.332Z,16.86
2018-12-31T03:38:17.136Z,16.86
2018-12-31T03:38:57.887Z,16.96
2018-12-31T03:39:38.585Z,16.96
2018-12-31T03:40:19.328Z,16.86
2018-12-31T03:41:00.108Z,16.89
2018-12-31T03:41:40.928Z,16.86
2018-12-31T03:42:21.765Z,16.86
2018-12-31T03:43:02.562Z,16.89
2018-12-31T03:43:43.292Z,16.82
2018-12-31T03:44:24.072Z,16.86
2018-12-31T03:45:04.885Z,16.85
2018-12-31T03:45:45.611Z,16.88
2018-12-31T03:46:26.327Z,16.83
2018-12-31T03:47:07.019Z,16.88
2018-12-31T03:47:47.865Z,16.83
2018-12-31T03:48:28.620Z,16.86
2018-12-31T03:49:09.338Z,16.88
2018-12-31T03:49:50.111Z,16.89
2018-12-31T03:50:30.956Z,16.88
2018-12-31T03:51:11.779Z,16.89
2018-12-31T03:51:52.527Z,16.86
2018-12-31T03:52:33.287Z,16.83
2018-12-31T03:53:14.060Z,16.88
2018-12-31T03:53:54.825Z,16.86
2018-12-31T03:54:35.539Z,16.86
2018-12-31T03:55:16.260Z,16.76
2018-12-31T03:55:57.003Z,16.91
2018-12-31T03:56:37.798Z,16.89
2018-12-31T03:57:18.624Z,16.86
2018-12-31T03:57:59.445Z,16.86
2018-12-31T03:58:40.172Z,16.93
2018-12-31T03:59:20.876Z,16.83
2018-12-31T04:00:01.649Z,16.82
2018-12-31T04:00:42.457Z,16.85
2018-12-31T04:01:23.252Z,16.85
2018-12-31T04:02:03.953Z,16.81
2018-12-31T04:02:44.688Z,16.78
2018-12-31T04:03:25.504Z,16.85
2018-12-31T04:04:06.287Z,16.78
2018-12-31T04:04:47.048Z,16.82
2018-12-31T04:05:27.760Z,16.89
2018-12-31T04:06:08.549Z,16.83
2018-12-31T04:06:49.309Z,16.78
2018-12-31T04:07:30.043Z,16.82
2018-12-31T04:08:10.770Z,16.83
2018-12-31T04:08:51.510Z,16.76
2018-12-31T04:09:32.245Z,16.78
2018-12-31T04:10:12.998Z,16.75
2018-12-31T04:10:53.729Z,16.79
2018-12-31T04:11:34.538Z,16.81
2018-12-31T04:12:15.368Z,16.76
2018-12-31T04:12:56.144Z,16.76
2018-12-31T04:13:36.912Z,16.76
2018-12-31T04:14:17.649Z,16.81
2018-12-31T04:14:58.363Z,16.78
2018-12-31T04:15:39.152Z,16.78
2018-12-31T04:16:19.982Z,16.81
2018-12-31T04:17:00.738Z,16.78
2018-12-31T04:17:41.563Z,16.78
2018-12-31T04:18:22.328Z,16.81
2018-12-31T04:19:03.101Z,16.78
2018-12-31T04:19:43.914Z,16.78
2018-12-31T04:20:24.634Z,16.83
2018-12-31T04:21:05.341Z,16.79
2018-12-31T04:21:46.057Z,16.78
2018-12-31T04:22:26.864Z,16.83
2018-12-31T04:23:07.646Z,16.79
2018-12-31T04:23:48.433Z,16.78
2018-12-31T04:24:29.218Z,16.76
2018-12-31T04:25:09.926Z,16.78
2018-12-31T04:25:50.634Z,16.79
2018-12-31T04:26:31.434Z,16.78
2018-12-31T04:27:12.255Z,16.73
2018-12-31T04:27:53.021Z,16.83
2018-12-31T04:28:33.728Z,16.78
2018-12-31T04:29:14.533Z,16.85
2018-12-31T04:29:55.359Z,16.79
2018-12-31T04:30:36.181Z,16.78
2018-12-31T04:31:16.897Z,16.78
2018-12-31T04:31:57.642Z,16.82
2018-12-31T04:32:38.340Z,16.78
2018-12-31T04:33:19.138Z,16.75
2018-12-31T04:33:59.912Z,16.81
2018-12-31T04:34:40.667Z,16.79
2018-12-31T04:35:21.460Z,16.83
2018-12-31T04:36:02.157Z,16.85
2018-12-31T04:36:42.936Z,16.83
2018-12-31T04:37:23.677Z,16.78
2018-12-31T04:38:04.356Z,16.83
2018-12-31T04:38:45.103Z,16.81
2018-12-31T04:39:25.831Z,16.75
2018-12-31T04:40:06.586Z,16.75
2018-12-31T04:40:47.374Z,16.76
2018-12-31T04:41:28.113Z,16.81
2018-12-31T04:42:08.891Z,16.83
2018-12-31T04:42:49.726Z,16.79
2018-12-31T04:43:30.558Z,16.79
2018-12-31T04:44:11.282Z,16.78
2018-12-31T04:44:52.023Z,16.83
2018-12-31T04:45:32.816Z,16.81
2018-12-31T04:46:13.551Z,16.76
2018-12-31T04:46:54.292Z,16.78
2018-12-31T04:47:35.027Z,16.75
2018-12-31T04:48:15.796Z,16.75
2018-12-31T04:48:56.606Z,16.68
2018-12-31T04:49:37.407Z,16.73
2018-12-31T04:50:18.233Z,16.7
2018-12-31T04:50:58.948Z,16.7
2018-12-31T04:51:39.655Z,16.71
2018-12-31T04:52:20.372Z,16.75
2018-12-31T04:53:01.216Z,16.68
2018-12-31T04:53:42.003Z,16.76
2018-12-31T04:54:22.724Z,16.68
2018-12-31T04:55:03.456Z,16.73
2018-12-31T04:55:44.738Z,16.71
2018-12-31T04:56:25.034Z,16.7
2018-12-31T04:57:05.772Z,16.66
2018-12-31T04:57:46.512Z,16.71
2018-12-31T04:58:29.219Z,16.7
2018-12-31T04:59:07.949Z,16.68
2018-12-31T04:59:48.720Z,16.7
2018-12-31T05:00:29.544Z,16.7
2018-12-31T05:01:10.302Z,16.73
2018-12-31T05:01:50.971Z,16.7
2018-12-31T05:02:31.775Z,16.71
2018-12-31T05:03:12.582Z,16.71
2018-12-31T05:03:53.273Z,16.71
2018-12-31T05:04:34.011Z,16.71
2018-12-31T05:05:14.760Z,16.71
2018-12-31T05:05:55.575Z,16.67
2018-12-31T05:06:36.320Z,16.67
2018-12-31T05:07:17.128Z,16.68
2018-12-31T05:07:57.885Z,16.64
2018-12-31T05:08:38.603Z,16.73
2018-12-31T05:09:19.374Z,16.67
2018-12-31T05:10:00.226Z,16.64
2018-12-31T05:10:40.919Z,16.68
2018-12-31T05:11:21.625Z,16.68
2018-12-31T05:12:02.336Z,16.73
2018-12-31T05:12:43.110Z,16.71
2018-12-31T05:13:23.915Z,16.75
2018-12-31T05:14:04.705Z,16.73
2018-12-31T05:14:45.466Z,16.71
2018-12-31T05:15:26.267Z,16.71
2018-12-31T05:16:07.115Z,16.71
2018-12-31T05:16:47.849Z,16.73
2018-12-31T05:17:28.556Z,16.68
2018-12-31T05:18:09.284Z,16.73
2018-12-31T05:18:50.066Z,16.71
2018-12-31T05:19:30.858Z,16.71
2018-12-31T05:20:11.570Z,16.71
2018-12-31T05:20:52.387Z,16.73
2018-12-31T05:21:33.202Z,16.71
2018-12-31T05:22:14.013Z,16.68
2018-12-31T05:22:54.720Z,16.7
2018-12-31T05:23:35.451Z,16.67
2018-12-31T05:24:16.188Z,16.64
2018-12-31T05:24:56.851Z,16.73
2018-12-31T05:25:37.695Z,16.67
2018-12-31T05:26:18.470Z,16.66
2018-12-31T05:26:59.300Z,16.66
2018-12-31T05:27:40.007Z,16.66
2018-12-31T05:28:20.748Z,16.75
2018-12-31T05:29:01.547Z,16.71
2018-12-31T05:29:42.287Z,16.68
2018-12-31T05:30:23.034Z,16.68
2018-12-31T05:31:03.760Z,16.71
2018-12-31T05:31:44.470Z,16.64
2018-12-31T05:32:25.277Z,16.7
2018-12-31T05:33:06.098Z,16.66
2018-12-31T05:33:46.845Z,16.66
2018-12-31T05:34:27.566Z,16.66
2018-12-31T05:35:08.285Z,16.7
2018-12-31T05:35:48.958Z,16.66
2018-12-31T05:36:29.778Z,16.7
2018-12-31T05:37:10.503Z,16.66
2018-12-31T05:37:51.231Z,16.75
2018-12-31T05:38:32.033Z,16.68
2018-12-31T05:39:12.757Z,16.68
2018-12-31T05:39:53.596Z,16.67
2018-12-31T05:40:34.343Z,16.66
2018-12-31T05:41:15.060Z,16.67
2018-12-31T05:41:55.754Z,16.68
2018-12-31T05:42:36.571Z,16.64
2018-12-31T05:43:17.371Z,16.64
2018-12-31T05:43:58.191Z,16.68
2018-12-31T05:44:38.896Z,16.67
2018-12-31T05:45:19.625Z,16.63
2018-12-31T05:46:00.433Z,16.63
2018-12-31T05:46:41.214Z,16.64
2018-12-31T05:47:21.967Z,16.64
2018-12-31T05:48:02.654Z,16.67
2018-12-31T05:48:43.427Z,16.63
2018-12-31T05:49:24.192Z,16.67
2018-12-31T05:50:04.966Z,16.64
2018-12-31T05:50:45.763Z,16.64
2018-12-31T05:51:26.521Z,16.61
2018-12-31T05:52:07.318Z,16.64
2018-12-31T05:52:48.099Z,16.63
2018-12-31T05:53:28.874Z,16.66
2018-12-31T05:54:09.595Z,16.66
2018-12-31T05:54:50.424Z,16.63
2018-12-31T05:55:31.165Z,16.63
2018-12-31T05:56:11.870Z,16.66
2018-12-31T05:56:52.559Z,16.63
2018-12-31T05:57:33.243Z,16.6
2018-12-31T05:58:14.028Z,16.64
2018-12-31T05:58:54.861Z,16.63
2018-12-31T05:59:35.620Z,16.6
2018-12-31T06:00:16.372Z,16.66
2018-12-31T06:00:57.124Z,16.63
2018-12-31T06:01:37.885Z,16.67
2018-12-31T06:02:18.691Z,16.67
2018-12-31T06:02:59.484Z,16.64
2018-12-31T06:03:40.180Z,16.61
2018-12-31T06:04:20.906Z,16.64
2018-12-31T06:05:01.733Z,16.64
2018-12-31T06:05:42.530Z,16.61
2018-12-31T06:06:23.258Z,16.6
2018-12-31T06:07:04.000Z,16.6
2018-12-31T06:07:44.796Z,16.61
2018-12-31T06:08:25.563Z,16.64
2018-12-31T06:09:06.275Z,16.61
2018-12-31T06:09:46.970Z,16.61
2018-12-31T06:10:27.701Z,16.66
2018-12-31T06:11:08.509Z,16.63
2018-12-31T06:11:49.278Z,16.63
2018-12-31T06:12:30.009Z,16.6
2018-12-31T06:13:10.779Z,16.63
2018-12-31T06:13:51.541Z,16.56
2018-12-31T06:14:32.311Z,16.57
2018-12-31T06:15:13.070Z,16.61
2018-12-31T06:15:53.794Z,16.57
2018-12-31T06:16:34.512Z,16.56
2018-12-31T06:17:15.251Z,16.56
2018-12-31T06:17:56.028Z,16.58
2018-12-31T06:18:36.824Z,16.57
2018-12-31T06:19:17.578Z,16.57
2018-12-31T06:19:58.313Z,16.53
2018-12-31T06:20:39.118Z,16.52
2018-12-31T06:21:19.905Z,16.53
2018-12-31T06:22:00.615Z,16.58
2018-12-31T06:22:41.329Z,16.6
2018-12-31T06:23:22.100Z,16.6
2018-12-31T06:24:02.895Z,16.56
2018-12-31T06:24:43.641Z,16.57
2018-12-31T06:25:24.337Z,16.64
2018-12-31T06:26:05.136Z,16.57
2018-12-31T06:26:45.919Z,16.6
2018-12-31T06:27:26.701Z,16.63
2018-12-31T06:28:07.443Z,16.64
2018-12-31T06:28:48.197Z,16.58
2018-12-31T06:29:28.950Z,16.52
2018-12-31T06:30:09.711Z,16.53
2018-12-31T06:30:50.440Z,16.57
2018-12-31T06:31:31.165Z,16.61
2018-12-31T06:32:11.854Z,16.57
2018-12-31T06:32:52.665Z,16.6
2018-12-31T06:33:33.485Z,16.61
2018-12-31T06:34:14.232Z,16.57
2018-12-31T06:34:55.017Z,16.61
2018-12-31T06:35:35.783Z,16.52
2018-12-31T06:36:16.489Z,16.58
2018-12-31T06:36:57.270Z,16.57
2018-12-31T06:37:38.027Z,16.56
2018-12-31T06:38:18.774Z,16.52
2018-12-31T06:38:59.573Z,16.57
2018-12-31T06:39:40.359Z,16.52
2018-12-31T06:40:21.164Z,16.52
2018-12-31T06:41:01.917Z,16.5
2018-12-31T06:41:42.674Z,16.53
2018-12-31T06:42:23.387Z,16.5
2018-12-31T06:43:04.140Z,16.6
2018-12-31T06:43:44.965Z,16.5
2018-12-31T06:44:25.760Z,16.5
2018-12-31T06:45:06.520Z,16.53
2018-12-31T06:45:47.260Z,16.61
2018-12-31T06:46:28.016Z,16.5
2018-12-31T06:47:08.864Z,16.48
2018-12-31T06:47:49.601Z,16.6
2018-12-31T06:48:30.377Z,16.49
2018-12-31T06:49:11.064Z,16.46
2018-12-31T06:49:51.777Z,16.49
2018-12-31T06:50:32.573Z,16.5
2018-12-31T06:51:13.377Z,16.5
2018-12-31T06:51:54.166Z,16.52
2018-12-31T06:52:34.959Z,16.56
2018-12-31T06:53:15.667Z,16.5
2018-12-31T06:53:56.372Z,16.45
2018-12-31T06:54:37.207Z,16.49
2018-12-31T06:55:17.962Z,16.5
2018-12-31T06:55:58.709Z,16.46
2018-12-31T06:56:39.520Z,16.48
2018-12-31T06:57:20.292Z,16.57
2018-12-31T06:58:01.113Z,16.48
2018-12-31T06:58:41.888Z,16.56
2018-12-31T06:59:22.591Z,16.53
2018-12-31T07:00:03.417Z,16.48
2018-12-31T07:00:44.211Z,16.48
2018-12-31T07:01:24.928Z,16.49
2018-12-31T07:02:05.689Z,16.48
2018-12-31T07:02:46.431Z,16.52
2018-12-31T07:03:27.246Z,16.49
2018-12-31T07:04:07.998Z,16.57
2018-12-31T07:04:48.721Z,16.56
2018-12-31T07:05:29.507Z,16.57
2018-12-31T07:06:10.320Z,16.46
2018-12-31T07:06:51.099Z,16.5
2018-12-31T07:07:31.844Z,16.52
2018-12-31T07:08:12.582Z,16.56
2018-12-31T07:08:53.302Z,16.48
2018-12-31T07:09:34.118Z,16.45
2018-12-31T07:10:14.862Z,16.56
2018-12-31T07:10:55.663Z,16.56
2018-12-31T07:11:36.409Z,16.49
2018-12-31T07:12:17.113Z,16.52
2018-12-31T07:12:57.875Z,16.49
2018-12-31T07:13:38.654Z,16.52
2018-12-31T07:14:19.349Z,16.49
2018-12-31T07:15:00.095Z,16.53
2018-12-31T07:15:40.795Z,16.56
2018-12-31T07:16:21.618Z,16.49
2018-12-31T07:17:02.405Z,16.52
2018-12-31T07:17:43.212Z,16.48
2018-12-31T07:18:24.021Z,16.48
2018-12-31T07:19:04.702Z,16.46
2018-12-31T07:19:45.405Z,16.52
2018-12-31T07:20:26.135Z,16.5
2018-12-31T07:21:06.924Z,16.5
2018-12-31T07:21:47.671Z,16.5
2018-12-31T07:22:28.397Z,16.49
2018-12-31T07:23:09.129Z,16.49
2018-12-31T07:23:49.941Z,16.49
2018-12-31T07:24:30.738Z,16.5
2018-12-31T07:25:11.462Z,16.49
2018-12-31T07:25:52.176Z,16.48
2018-12-31T07:26:32.928Z,16.46
2018-12-31T07:27:13.728Z,16.48
2018-12-31T07:27:54.521Z,16.5
2018-12-31T07:28:35.295Z,16.52
2018-12-31T07:29:16.096Z,16.5
2018-12-31T07:29:56.806Z,16.49
2018-12-31T07:30:37.583Z,16.53
2018-12-31T07:31:18.518Z,16.48
2018-12-31T07:31:59.274Z,16.49
2018-12-31T07:32:40.206Z,16.56
2018-12-31T07:33:20.971Z,16.49
2018-12-31T07:34:01.732Z,16.48
2018-12-31T07:34:42.477Z,16.52
2018-12-31T07:35:23.204Z,16.48
2018-12-31T07:36:03.976Z,16.48
2018-12-31T07:36:44.801Z,16.49
2018-12-31T07:37:25.640Z,16.48
2018-12-31T07:38:06.511Z,16.56
2018-12-31T07:38:47.242Z,16.46
2018-12-31T07:39:28.036Z,16.49
2018-12-31T07:40:08.838Z,16.49
2018-12-31T07:40:49.789Z,16.48
2018-12-31T07:41:30.306Z,16.57
2018-12-31T07:42:11.035Z,16.5
2018-12-31T07:42:51.814Z,16.56
2018-12-31T07:43:32.599Z,16.46
2018-12-31T07:44:13.398Z,16.49
2018-12-31T07:44:54.100Z,16.45
2018-12-31T07:45:34.901Z,16.49
2018-12-31T07:46:15.619Z,16.53
2018-12-31T07:46:56.438Z,16.46
2018-12-31T07:47:37.287Z,16.5
2018-12-31T07:48:17.987Z,16.5
2018-12-31T07:48:58.758Z,16.48
2018-12-31T07:49:39.547Z,16.48
2018-12-31T07:50:20.355Z,16.49
2018-12-31T07:51:01.100Z,16.53
2018-12-31T07:51:41.780Z,16.48
2018-12-31T07:52:22.512Z,16.45
2018-12-31T07:53:03.254Z,16.46
2018-12-31T07:53:44.070Z,16.49
2018-12-31T07:54:24.854Z,16.45
2018-12-31T07:55:05.614Z,16.52
2018-12-31T07:55:46.341Z,16.48
2018-12-31T07:56:27.136Z,16.45
2018-12-31T07:57:07.961Z,16.46
2018-12-31T07:57:48.642Z,16.49
2018-12-31T07:58:29.426Z,16.5
2018-12-31T07:59:10.184Z,16.46
2018-12-31T07:59:50.944Z,16.53
2018-12-31T08:00:31.788Z,16.49
2018-12-31T08:01:12.550Z,16.45
2018-12-31T08:01:53.349Z,16.49
2018-12-31T08:02:34.161Z,16.49
2018-12-31T08:03:14.965Z,16.49
2018-12-31T08:03:55.719Z,16.58
2018-12-31T08:04:36.556Z,16.45
2018-12-31T08:05:17.399Z,16.52
2018-12-31T08:05:58.262Z,16.57
2018-12-31T08:06:39.084Z,16.49
2018-12-31T08:07:19.977Z,16.58
2018-12-31T08:08:00.795Z,16.52
2018-12-31T08:08:41.602Z,16.6
2018-12-31T08:09:22.360Z,16.53
2018-12-31T08:10:03.219Z,16.56
2018-12-31T08:10:43.989Z,16.64
2018-12-31T08:11:24.755Z,16.57
2018-12-31T08:12:05.418Z,16.52
2018-12-31T08:12:46.158Z,16.49
2018-12-31T08:13:26.990Z,16.5
2018-12-31T08:14:07.709Z,16.64
2018-12-31T08:14:48.433Z,16.53
2018-12-31T08:15:29.326Z,16.56
2018-12-31T08:16:10.137Z,16.56
2018-12-31T08:16:50.996Z,16.53
2018-12-31T08:17:31.779Z,16.6
2018-12-31T08:18:12.661Z,16.61
2018-12-31T08:18:53.233Z,16.49
2018-12-31T08:19:34.142Z,16.61
2018-12-31T08:20:14.938Z,16.53
2018-12-31T08:20:55.738Z,16.53
2018-12-31T08:21:36.462Z,16.46
2018-12-31T08:22:17.175Z,16.45
2018-12-31T08:22:58.013Z,16.52
2018-12-31T08:23:38.783Z,16.56
2018-12-31T08:24:19.588Z,16.53
2018-12-31T08:25:00.356Z,16.57
2018-12-31T08:25:41.100Z,16.52
2018-12-31T08:26:21.912Z,16.49
2018-12-31T08:27:02.846Z,16.64
2018-12-31T08:27:43.630Z,16.5
2018-12-31T08:28:24.420Z,16.6
2018-12-31T08:29:05.197Z,16.53
2018-12-31T08:29:45.973Z,16.56
2018-12-31T08:30:26.731Z,16.53
2018-12-31T08:31:07.461Z,16.52
2018-12-31T08:31:48.262Z,16.58
2018-12-31T08:32:28.967Z,16.57
2018-12-31T08:33:09.696Z,16.64
2018-12-31T08:33:50.420Z,16.52
2018-12-31T08:34:31.189Z,16.58
2018-12-31T08:35:12.004Z,16.61
2018-12-31T08:35:52.808Z,16.45
2018-12-31T08:36:34.085Z,16.56
2018-12-31T08:37:14.816Z,16.5
2018-12-31T08:37:55.534Z,16.6
2018-12-31T08:38:36.291Z,16.57
2018-12-31T08:39:17.108Z,16.57
2018-12-31T08:39:57.827Z,16.53
2018-12-31T08:40:38.552Z,16.61
2018-12-31T08:41:19.383Z,16.58
2018-12-31T08:42:00.157Z,16.61
2018-12-31T08:42:40.990Z,16.64
2018-12-31T08:43:21.708Z,16.61
2018-12-31T08:44:02.460Z,16.61
2018-12-31T08:44:43.317Z,16.6
2018-12-31T08:45:24.086Z,16.6
2018-12-31T08:46:04.793Z,16.61
2018-12-31T08:46:45.534Z,16.66